createdAt,value
2015-03-05T00:00:17.456Z,101748
2015-03-05T00:00:36.123Z,101754
2015-03-05T00:00:54.786Z,101754
2015-03-05T00:01:13.483Z,101748
2015-03-05T00:01:32.157Z,101757
2015-03-05T00:01:50.838Z,101745
2015-03-05T00:02:09.503Z,101748
2015-03-05T00:02:28.213Z,101742
2015-03-05T00:02:46.890Z,101745
2015-03-05T00:03:05.565Z,101751
2015-03-05T00:03:24.227Z,101739
2015-03-05T00:03:42.275Z,101745
2015-03-05T00:04:00.939Z,101748
2015-03-05T00:04:19.628Z,101754
2015-03-05T00:04:38.309Z,101751
2015-03-05T00:04:56.987Z,101739
2015-03-05T00:05:15.666Z,101742
2015-03-05T00:05:34.328Z,101751
2015-03-05T00:05:53.028Z,101751
2015-03-05T00:06:11.701Z,101751
2015-03-05T00:06:30.382Z,101742
2015-03-05T00:06:49.064Z,101742
2015-03-05T00:07:07.765Z,101745
2015-03-05T00:07:26.428Z,101745
2015-03-05T00:07:45.126Z,101745
2015-03-05T00:08:03.786Z,101751
2015-03-05T00:08:22.500Z,101748
2015-03-05T00:08:41.158Z,101742
2015-03-05T00:08:59.856Z,101748
2015-03-05T00:09:18.540Z,101751
2015-03-05T00:09:37.078Z,101751
2015-03-05T00:09:55.744Z,101745
2015-03-05T00:10:14.454Z,101748
2015-03-05T00:10:33.135Z,101748
2015-03-05T00:10:51.797Z,101754
2015-03-05T00:11:10.497Z,101751
2015-03-05T00:11:29.191Z,101751
2015-03-05T00:11:47.872Z,101748
2015-03-05T00:12:06.550Z,101757
2015-03-05T00:12:25.236Z,101757
2015-03-05T00:12:43.895Z,101757
2015-03-05T00:13:02.589Z,101763
2015-03-05T00:13:21.276Z,101757
2015-03-05T00:13:39.939Z,101754
2015-03-05T00:13:58.625Z,101766
2015-03-05T00:14:17.333Z,101763
2015-03-05T00:14:36.005Z,101771
2015-03-05T00:14:54.666Z,101760
2015-03-05T00:15:13.352Z,101760
2015-03-05T00:15:32.051Z,101763
2015-03-05T00:15:50.719Z,101760
2015-03-05T00:16:09.406Z,101754
2015-03-05T00:16:28.094Z,101771
2015-03-05T00:16:46.768Z,101763
2015-03-05T00:17:05.432Z,101760
2015-03-05T00:17:24.132Z,101760
2015-03-05T00:17:42.809Z,101769
2015-03-05T00:18:01.487Z,101757
2015-03-05T00:18:20.152Z,101760
2015-03-05T00:18:38.828Z,101766
2015-03-05T00:18:57.524Z,101768
2015-03-05T00:19:16.209Z,101774
2015-03-05T00:19:34.877Z,101771
2015-03-05T00:19:53.555Z,101768
2015-03-05T00:20:12.232Z,101771
2015-03-05T00:20:30.913Z,101771
2015-03-05T00:20:49.575Z,101771
2015-03-05T00:21:08.270Z,101768
2015-03-05T00:21:26.940Z,101768
2015-03-05T00:21:45.633Z,101771
2015-03-05T00:22:04.296Z,101771
2015-03-05T00:22:22.994Z,101768
2015-03-05T00:22:41.672Z,101771
2015-03-05T00:23:00.335Z,101763
2015-03-05T00:23:19.016Z,101777
2015-03-05T00:23:37.723Z,101763
2015-03-05T00:23:56.406Z,101777
2015-03-05T00:24:14.921Z,101771
2015-03-05T00:24:33.616Z,101768
2015-03-05T00:24:52.299Z,101768
2015-03-05T00:25:11.179Z,101768
2015-03-05T00:25:29.640Z,101766
2015-03-05T00:25:48.328Z,101771
2015-03-05T00:26:07.000Z,101774
2015-03-05T00:26:25.690Z,101774
2015-03-05T00:26:44.371Z,101771
2015-03-05T00:27:03.048Z,101771
2015-03-05T00:27:21.718Z,101774
2015-03-05T00:27:40.411Z,101766
2015-03-05T00:27:59.077Z,101768
2015-03-05T00:28:17.778Z,101771
2015-03-05T00:28:36.448Z,101780
2015-03-05T00:28:55.126Z,101777
2015-03-05T00:29:13.809Z,101777
2015-03-05T00:29:32.498Z,101777
2015-03-05T00:29:51.179Z,101768
2015-03-05T00:30:09.858Z,101780
2015-03-05T00:30:28.542Z,101766
2015-03-05T00:30:47.216Z,101780
2015-03-05T00:31:05.881Z,101774
2015-03-05T00:31:24.560Z,101777
2015-03-05T00:31:43.243Z,101780
2015-03-05T00:32:01.936Z,101771
2015-03-05T00:32:20.599Z,101777
2015-03-05T00:32:39.276Z,101771
2015-03-05T00:32:57.966Z,101771
2015-03-05T00:33:16.635Z,101777
2015-03-05T00:33:35.326Z,101777
2015-03-05T00:33:53.986Z,101774
2015-03-05T00:34:12.684Z,101780
2015-03-05T00:34:31.358Z,101786
2015-03-05T00:34:50.021Z,101786
2015-03-05T00:35:08.715Z,101777
2015-03-05T00:35:27.385Z,101783
2015-03-05T00:35:46.061Z,101789
2015-03-05T00:36:04.755Z,101780
2015-03-05T00:36:23.437Z,101780
2015-03-05T00:36:42.133Z,101774
2015-03-05T00:37:00.808Z,101783
2015-03-05T00:37:19.483Z,101780
2015-03-05T00:37:38.173Z,101783
2015-03-05T00:37:56.852Z,101786
2015-03-05T00:38:15.534Z,101792
2015-03-05T00:38:34.212Z,101792
2015-03-05T00:38:52.887Z,101789
2015-03-05T00:39:11.564Z,101795
2015-03-05T00:39:30.260Z,101795
2015-03-05T00:39:48.294Z,101795
2015-03-05T00:40:06.952Z,101789
2015-03-05T00:40:25.652Z,101786
2015-03-05T00:40:44.329Z,101780
2015-03-05T00:41:02.998Z,101792
2015-03-05T00:41:21.679Z,101792
2015-03-05T00:41:40.375Z,101798
2015-03-05T00:41:59.055Z,101786
2015-03-05T00:42:17.735Z,101792
2015-03-05T00:42:36.413Z,101786
2015-03-05T00:42:55.090Z,101786
2015-03-05T00:43:13.774Z,101789
2015-03-05T00:43:32.293Z,101795
2015-03-05T00:43:50.972Z,101792
2015-03-05T00:44:09.664Z,101803
2015-03-05T00:44:28.345Z,101797
2015-03-05T00:44:47.023Z,101789
2015-03-05T00:45:05.689Z,101797
2015-03-05T00:45:24.374Z,101795
2015-03-05T00:45:43.071Z,101797
2015-03-05T00:46:01.755Z,101792
2015-03-05T00:46:20.439Z,101792
2015-03-05T00:46:39.116Z,101792
2015-03-05T00:46:57.797Z,101803
2015-03-05T00:47:16.460Z,101792
2015-03-05T00:47:35.138Z,101792
2015-03-05T00:47:53.835Z,101789
2015-03-05T00:48:12.499Z,101789
2015-03-05T00:48:31.186Z,101797
2015-03-05T00:48:49.920Z,101803
2015-03-05T00:49:08.584Z,101795
2015-03-05T00:49:27.247Z,101792
2015-03-05T00:49:45.922Z,101809
2015-03-05T00:50:04.615Z,101792
2015-03-05T00:50:23.281Z,101795
2015-03-05T00:50:41.959Z,101795
2015-03-05T00:51:00.660Z,101803
2015-03-05T00:51:19.329Z,101797
2015-03-05T00:51:38.007Z,101800
2015-03-05T00:51:56.691Z,101800
2015-03-05T00:52:15.362Z,101797
2015-03-05T00:52:34.040Z,101789
2015-03-05T00:52:52.707Z,101777
2015-03-05T00:53:11.399Z,101797
2015-03-05T00:53:30.067Z,101797
2015-03-05T00:53:48.757Z,101797
2015-03-05T00:54:07.415Z,101797
2015-03-05T00:54:26.098Z,101794
2015-03-05T00:54:44.788Z,101797
2015-03-05T00:55:03.473Z,101800
2015-03-05T00:55:22.153Z,101800
2015-03-05T00:55:40.832Z,101792
2015-03-05T00:55:59.507Z,101789
2015-03-05T00:56:18.203Z,101789
2015-03-05T00:56:36.881Z,101789
2015-03-05T00:56:55.559Z,101792
2015-03-05T00:57:14.243Z,101803
2015-03-05T00:57:32.922Z,101812
2015-03-05T00:57:51.605Z,101800
2015-03-05T00:58:10.295Z,101794
2015-03-05T00:58:28.967Z,101803
2015-03-05T00:58:47.644Z,101818
2015-03-05T00:59:06.325Z,101794
2015-03-05T00:59:25.006Z,101794
2015-03-05T00:59:43.668Z,101809
2015-03-05T01:00:02.358Z,101803
2015-03-05T01:00:21.045Z,101812
2015-03-05T01:00:39.727Z,101815
2015-03-05T01:00:58.430Z,101803
2015-03-05T01:01:16.932Z,101794
2015-03-05T01:01:35.600Z,101794
2015-03-05T01:01:54.286Z,101800
2015-03-05T01:02:12.967Z,101794
2015-03-05T01:02:31.632Z,101800
2015-03-05T01:02:50.311Z,101803
2015-03-05T01:03:08.996Z,101812
2015-03-05T01:03:27.696Z,101803
2015-03-05T01:03:46.377Z,101815
2015-03-05T01:04:05.071Z,101809
2015-03-05T01:04:23.736Z,101812
2015-03-05T01:04:42.429Z,101809
2015-03-05T01:05:01.090Z,101818
2015-03-05T01:05:19.787Z,101806
2015-03-05T01:05:38.468Z,101821
2015-03-05T01:05:57.135Z,101815
2015-03-05T01:06:15.829Z,101806
2015-03-05T01:06:34.515Z,101818
2015-03-05T01:06:53.189Z,101806
2015-03-05T01:07:11.875Z,101803
2015-03-05T01:07:30.546Z,101818
2015-03-05T01:07:49.234Z,101825
2015-03-05T01:08:07.911Z,101806
2015-03-05T01:08:26.575Z,101806
2015-03-05T01:08:45.261Z,101823
2015-03-05T01:09:03.926Z,101818
2015-03-05T01:09:22.621Z,101815
2015-03-05T01:09:41.310Z,101812
2015-03-05T01:09:59.979Z,101821
2015-03-05T01:10:18.657Z,101815
2015-03-05T01:10:37.320Z,101803
2015-03-05T01:10:56.001Z,101821
2015-03-05T01:11:14.688Z,101815
2015-03-05T01:11:33.355Z,101815
2015-03-05T01:11:52.050Z,101821
2015-03-05T01:12:10.725Z,101823
2015-03-05T01:12:29.393Z,101823
2015-03-05T01:12:48.086Z,101821
2015-03-05T01:13:06.771Z,101815
2015-03-05T01:13:25.454Z,101818
2015-03-05T01:13:44.136Z,101815
2015-03-05T01:14:02.797Z,101815
2015-03-05T01:14:21.480Z,101809
2015-03-05T01:14:40.170Z,101815
2015-03-05T01:14:58.855Z,101821
2015-03-05T01:15:17.535Z,101823
2015-03-05T01:15:36.194Z,101818
2015-03-05T01:15:54.891Z,101823
2015-03-05T01:16:13.570Z,101821
2015-03-05T01:16:32.247Z,101823
2015-03-05T01:16:50.938Z,101812
2015-03-05T01:17:09.622Z,101818
2015-03-05T01:17:28.303Z,101823
2015-03-05T01:17:46.989Z,101806
2015-03-05T01:18:05.676Z,101812
2015-03-05T01:18:24.351Z,101821
2015-03-05T01:18:43.030Z,101821
2015-03-05T01:19:01.707Z,101815
2015-03-05T01:19:20.386Z,101823
2015-03-05T01:19:39.062Z,101812
2015-03-05T01:19:57.735Z,101821
2015-03-05T01:20:16.430Z,101815
2015-03-05T01:20:35.097Z,101815
2015-03-05T01:20:53.771Z,101806
2015-03-05T01:21:12.449Z,101812
2015-03-05T01:21:30.493Z,101806
2015-03-05T01:21:49.175Z,101815
2015-03-05T01:22:07.858Z,101815
2015-03-05T01:22:26.547Z,101812
2015-03-05T01:22:45.222Z,101809
2015-03-05T01:23:03.734Z,101815
2015-03-05T01:23:21.765Z,101815
2015-03-05T01:23:40.460Z,101812
2015-03-05T01:23:59.138Z,101803
2015-03-05T01:24:17.800Z,101818
2015-03-05T01:24:36.479Z,101815
2015-03-05T01:24:55.172Z,101821
2015-03-05T01:25:13.855Z,101821
2015-03-05T01:25:31.894Z,101828
2015-03-05T01:25:50.568Z,101828
2015-03-05T01:26:09.234Z,101821
2015-03-05T01:26:27.929Z,101825
2015-03-05T01:26:46.611Z,101818
2015-03-05T01:27:05.290Z,101815
2015-03-05T01:27:23.957Z,101809
2015-03-05T01:27:42.631Z,101818
2015-03-05T01:28:01.304Z,101818
2015-03-05T01:28:19.998Z,101818
2015-03-05T01:28:38.677Z,101821
2015-03-05T01:28:57.351Z,101815
2015-03-05T01:29:16.028Z,101825
2015-03-05T01:29:34.707Z,101821
2015-03-05T01:29:53.390Z,101815
2015-03-05T01:30:11.435Z,101818
2015-03-05T01:30:30.114Z,101825
2015-03-05T01:30:48.790Z,101823
2015-03-05T01:31:07.451Z,101815
2015-03-05T01:31:26.145Z,101818
2015-03-05T01:31:44.823Z,101825
2015-03-05T01:32:03.499Z,101818
2015-03-05T01:32:22.186Z,101815
2015-03-05T01:32:40.868Z,101821
2015-03-05T01:32:59.532Z,101818
2015-03-05T01:33:18.220Z,101823
2015-03-05T01:33:36.887Z,101823
2015-03-05T01:33:55.566Z,101820
2015-03-05T01:34:14.260Z,101823
2015-03-05T01:34:32.939Z,101825
2015-03-05T01:34:51.626Z,101818
2015-03-05T01:35:10.301Z,101809
2015-03-05T01:35:28.984Z,101820
2015-03-05T01:35:47.657Z,101823
2015-03-05T01:36:06.335Z,101820
2015-03-05T01:36:24.998Z,101825
2015-03-05T01:36:43.043Z,101828
2015-03-05T01:37:01.722Z,101820
2015-03-05T01:37:20.406Z,101823
2015-03-05T01:37:39.066Z,101823
2015-03-05T01:37:57.762Z,101823
2015-03-05T01:38:16.434Z,101823
2015-03-05T01:38:35.100Z,101823
2015-03-05T01:38:53.798Z,101817
2015-03-05T01:39:12.473Z,101834
2015-03-05T01:39:31.157Z,101823
2015-03-05T01:39:49.825Z,101834
2015-03-05T01:40:08.511Z,101834
2015-03-05T01:40:27.179Z,101828
2015-03-05T01:40:45.875Z,101831
2015-03-05T01:41:04.534Z,101834
2015-03-05T01:41:23.232Z,101831
2015-03-05T01:41:41.914Z,101828
2015-03-05T01:42:00.594Z,101834
2015-03-05T01:42:19.274Z,101831
2015-03-05T01:42:37.945Z,101837
2015-03-05T01:42:56.608Z,101831
2015-03-05T01:43:15.288Z,101831
2015-03-05T01:43:33.977Z,101834
2015-03-05T01:43:52.659Z,101834
2015-03-05T01:44:11.345Z,101828
2015-03-05T01:44:30.009Z,101825
2015-03-05T01:44:48.708Z,101820
2015-03-05T01:45:07.365Z,101831
2015-03-05T01:45:26.065Z,101831
2015-03-05T01:45:44.725Z,101834
2015-03-05T01:46:03.406Z,101834
2015-03-05T01:46:22.099Z,101828
2015-03-05T01:46:40.779Z,101825
2015-03-05T01:46:59.454Z,101837
2015-03-05T01:47:18.116Z,101823
2015-03-05T01:47:36.657Z,101828
2015-03-05T01:47:55.335Z,101831
2015-03-05T01:48:14.012Z,101831
2015-03-05T01:48:32.692Z,101831
2015-03-05T01:48:51.382Z,101823
2015-03-05T01:49:10.070Z,101828
2015-03-05T01:49:28.734Z,101834
2015-03-05T01:49:47.409Z,101834
2015-03-05T01:50:06.077Z,101823
2015-03-05T01:50:24.770Z,101831
2015-03-05T01:50:43.438Z,101834
2015-03-05T01:51:02.113Z,101817
2015-03-05T01:51:20.803Z,101834
2015-03-05T01:51:39.496Z,101825
2015-03-05T01:51:58.157Z,101825
2015-03-05T01:52:16.842Z,101837
2015-03-05T01:52:35.519Z,101828
2015-03-05T01:52:54.195Z,101823
2015-03-05T01:53:12.889Z,101834
2015-03-05T01:53:31.581Z,101843
2015-03-05T01:53:50.237Z,101831
2015-03-05T01:54:08.952Z,101834
2015-03-05T01:54:27.617Z,101831
2015-03-05T01:54:46.302Z,101837
2015-03-05T01:55:04.964Z,101834
2015-03-05T01:55:23.657Z,101834
2015-03-05T01:55:42.330Z,101846
2015-03-05T01:56:00.997Z,101831
2015-03-05T01:56:19.903Z,101843
2015-03-05T01:56:38.363Z,101834
2015-03-05T01:56:57.034Z,101831
2015-03-05T01:57:15.736Z,101828
2015-03-05T01:57:34.410Z,101834
2015-03-05T01:57:53.069Z,101831
2015-03-05T01:58:11.761Z,101828
2015-03-05T01:58:30.440Z,101831
2015-03-05T01:58:49.125Z,101834
2015-03-05T01:59:07.797Z,101843
2015-03-05T01:59:26.475Z,101840
2015-03-05T01:59:45.158Z,101828
2015-03-05T02:00:03.211Z,101837
2015-03-05T02:00:21.876Z,101837
2015-03-05T02:00:40.571Z,101840
2015-03-05T02:00:59.249Z,101837
2015-03-05T02:01:17.932Z,101837
2015-03-05T02:01:36.592Z,101837
2015-03-05T02:01:55.286Z,101837
2015-03-05T02:02:13.960Z,101837
2015-03-05T02:02:32.639Z,101837
2015-03-05T02:02:51.303Z,101843
2015-03-05T02:03:09.983Z,101840
2015-03-05T02:03:28.664Z,101834
2015-03-05T02:03:47.356Z,101840
2015-03-05T02:04:06.032Z,101840
2015-03-05T02:04:24.707Z,101840
2015-03-05T02:04:43.372Z,101843
2015-03-05T02:05:02.055Z,101843
2015-03-05T02:05:20.749Z,101845
2015-03-05T02:05:39.425Z,101843
2015-03-05T02:05:58.103Z,101848
2015-03-05T02:06:16.789Z,101851
2015-03-05T02:06:35.461Z,101848
2015-03-05T02:06:54.123Z,101845
2015-03-05T02:07:12.801Z,101851
2015-03-05T02:07:31.480Z,101851
2015-03-05T02:07:50.174Z,101843
2015-03-05T02:08:08.856Z,101848
2015-03-05T02:08:27.544Z,101854
2015-03-05T02:08:46.227Z,101840
2015-03-05T02:09:04.905Z,101851
2015-03-05T02:09:23.581Z,101843
2015-03-05T02:09:42.260Z,101845
2015-03-05T02:10:00.916Z,101860
2015-03-05T02:10:19.594Z,101845
2015-03-05T02:10:38.291Z,101845
2015-03-05T02:10:56.967Z,101854
2015-03-05T02:11:15.636Z,101837
2015-03-05T02:11:34.331Z,101843
2015-03-05T02:11:53.000Z,101843
2015-03-05T02:12:11.680Z,101851
2015-03-05T02:12:30.365Z,101845
2015-03-05T02:12:49.056Z,101845
2015-03-05T02:13:07.717Z,101851
2015-03-05T02:13:26.409Z,101845
2015-03-05T02:13:45.092Z,101843
2015-03-05T02:14:03.136Z,101845
2015-03-05T02:14:21.807Z,101845
2015-03-05T02:14:40.478Z,101851
2015-03-05T02:14:59.168Z,101843
2015-03-05T02:15:17.845Z,101854
2015-03-05T02:15:36.510Z,101851
2015-03-05T02:15:55.208Z,101854
2015-03-05T02:16:13.893Z,101848
2015-03-05T02:16:32.567Z,101851
2015-03-05T02:16:51.250Z,101860
2015-03-05T02:17:09.921Z,101848
2015-03-05T02:17:28.586Z,101860
2015-03-05T02:17:47.280Z,101851
2015-03-05T02:18:05.955Z,101857
2015-03-05T02:18:24.618Z,101854
2015-03-05T02:18:43.319Z,101869
2015-03-05T02:19:31.918Z,101863
2015-03-05T02:19:50.613Z,101857
2015-03-05T02:20:09.285Z,101860
2015-03-05T02:20:27.961Z,101871
2015-03-05T02:20:46.646Z,101854
2015-03-05T02:21:05.321Z,101857
2015-03-05T02:21:24.018Z,101851
2015-03-05T02:21:42.691Z,101863
2015-03-05T02:22:01.361Z,101857
2015-03-05T02:22:20.052Z,101863
2015-03-05T02:22:38.731Z,101869
2015-03-05T02:22:57.391Z,101863
2015-03-05T02:23:16.075Z,101863
2015-03-05T02:23:34.770Z,101869
2015-03-05T02:23:53.429Z,101876
2015-03-05T02:24:12.122Z,101871
2015-03-05T02:24:30.797Z,101871
2015-03-05T02:24:49.462Z,101869
2015-03-05T02:25:08.142Z,101874
2015-03-05T02:25:26.831Z,101863
2015-03-05T02:25:45.514Z,101869
2015-03-05T02:26:04.185Z,101869
2015-03-05T02:26:22.874Z,101860
2015-03-05T02:26:41.570Z,101876
2015-03-05T02:27:00.238Z,101869
2015-03-05T02:27:18.902Z,101874
2015-03-05T02:27:36.953Z,101871
2015-03-05T02:27:54.991Z,101863
2015-03-05T02:28:13.675Z,101874
2015-03-05T02:28:32.352Z,101874
2015-03-05T02:28:51.047Z,101863
2015-03-05T02:29:09.743Z,101871
2015-03-05T02:29:28.397Z,101869
2015-03-05T02:29:47.089Z,101869
2015-03-05T02:30:05.753Z,101871
2015-03-05T02:30:24.455Z,101871
2015-03-05T02:30:43.142Z,101869
2015-03-05T02:31:01.801Z,101860
2015-03-05T02:31:20.479Z,101857
2015-03-05T02:31:39.154Z,101857
2015-03-05T02:31:57.856Z,101876
2015-03-05T02:32:16.532Z,101863
2015-03-05T02:32:35.209Z,101874
2015-03-05T02:32:53.879Z,101863
2015-03-05T02:33:12.563Z,101871
2015-03-05T02:33:31.250Z,101860
2015-03-05T02:33:49.939Z,101874
2015-03-05T02:34:08.601Z,101871
2015-03-05T02:34:27.294Z,101874
2015-03-05T02:34:45.959Z,101869
2015-03-05T02:35:04.654Z,101854
2015-03-05T02:35:23.333Z,101874
2015-03-05T02:35:42.019Z,101874
2015-03-05T02:36:00.693Z,101874
2015-03-05T02:36:19.383Z,101874
2015-03-05T02:36:38.057Z,101860
2015-03-05T02:36:56.732Z,101874
2015-03-05T02:37:15.394Z,101871
2015-03-05T02:37:34.092Z,101863
2015-03-05T02:37:52.760Z,101860
2015-03-05T02:38:11.446Z,101876
2015-03-05T02:38:30.123Z,101871
2015-03-05T02:38:48.802Z,101857
2015-03-05T02:39:07.484Z,101871
2015-03-05T02:39:26.158Z,101863
2015-03-05T02:39:44.837Z,101869
2015-03-05T02:40:03.522Z,101860
2015-03-05T02:40:21.580Z,101860
2015-03-05T02:40:40.239Z,101863
2015-03-05T02:40:58.918Z,101860
2015-03-05T02:41:17.444Z,101863
2015-03-05T02:41:36.117Z,101869
2015-03-05T02:41:54.779Z,101860
2015-03-05T02:42:13.477Z,101863
2015-03-05T02:42:32.160Z,101871
2015-03-05T02:42:50.840Z,101879
2015-03-05T02:43:09.517Z,101874
2015-03-05T02:43:28.186Z,101876
2015-03-05T02:43:46.854Z,101869
2015-03-05T02:44:05.540Z,101869
2015-03-05T02:44:24.241Z,101873
2015-03-05T02:44:42.902Z,101891
2015-03-05T02:45:01.600Z,101869
2015-03-05T02:45:20.277Z,101873
2015-03-05T02:45:38.941Z,101874
2015-03-05T02:45:57.617Z,101876
2015-03-05T02:46:16.294Z,101871
2015-03-05T02:46:34.985Z,101876
2015-03-05T02:46:53.669Z,101879
2015-03-05T02:47:12.346Z,101879
2015-03-05T02:47:31.034Z,101879
2015-03-05T02:47:49.714Z,101871
2015-03-05T02:48:08.240Z,101885
2015-03-05T02:48:26.903Z,101888
2015-03-05T02:48:45.607Z,101885
2015-03-05T02:49:04.262Z,101882
2015-03-05T02:49:22.941Z,101882
2015-03-05T02:49:41.623Z,101882
2015-03-05T02:50:00.328Z,101885
2015-03-05T02:50:19.011Z,101882
2015-03-05T02:50:37.671Z,101885
2015-03-05T02:50:56.343Z,101885
2015-03-05T02:51:15.018Z,101885
2015-03-05T02:51:33.706Z,101888
2015-03-05T02:51:51.753Z,101891
2015-03-05T02:52:10.428Z,101894
2015-03-05T02:52:29.107Z,101891
2015-03-05T02:52:47.778Z,101894
2015-03-05T02:53:06.455Z,101891
2015-03-05T02:53:24.974Z,101882
2015-03-05T02:53:43.669Z,101891
2015-03-05T02:54:02.354Z,101888
2015-03-05T02:54:21.016Z,101900
2015-03-05T02:54:39.707Z,101897
2015-03-05T02:54:58.395Z,101888
2015-03-05T02:55:17.073Z,101894
2015-03-05T02:55:35.735Z,101891
2015-03-05T02:55:54.431Z,101891
2015-03-05T02:56:13.316Z,101888
2015-03-05T02:56:31.790Z,101903
2015-03-05T02:56:50.451Z,101894
2015-03-05T02:57:09.152Z,101891
2015-03-05T02:57:27.820Z,101885
2015-03-05T02:57:46.511Z,101894
2015-03-05T02:58:05.199Z,101891
2015-03-05T02:58:23.888Z,101894
2015-03-05T02:58:42.562Z,101897
2015-03-05T02:59:01.237Z,101897
2015-03-05T02:59:19.918Z,101891
2015-03-05T02:59:38.580Z,101891
2015-03-05T02:59:57.276Z,101897
2015-03-05T03:00:15.938Z,101894
2015-03-05T03:00:34.627Z,101891
2015-03-05T03:00:53.309Z,101894
2015-03-05T03:01:11.981Z,101903
2015-03-05T03:01:30.657Z,101891
2015-03-05T03:01:49.321Z,101894
2015-03-05T03:02:08.020Z,101894
2015-03-05T03:02:26.702Z,101894
2015-03-05T03:02:45.378Z,101891
2015-03-05T03:03:04.055Z,101891
2015-03-05T03:03:22.732Z,101897
2015-03-05T03:03:41.410Z,101894
2015-03-05T03:04:00.074Z,101894
2015-03-05T03:04:18.764Z,101903
2015-03-05T03:04:37.444Z,101903
2015-03-05T03:04:56.126Z,101897
2015-03-05T03:05:14.789Z,101900
2015-03-05T03:05:33.483Z,101900
2015-03-05T03:05:52.148Z,101894
2015-03-05T03:06:10.845Z,101891
2015-03-05T03:06:29.507Z,101903
2015-03-05T03:06:48.205Z,101897
2015-03-05T03:07:06.890Z,101905
2015-03-05T03:07:25.552Z,101908
2015-03-05T03:07:44.248Z,101900
2015-03-05T03:08:02.909Z,101905
2015-03-05T03:08:21.600Z,101900
2015-03-05T03:08:40.264Z,101897
2015-03-05T03:08:58.957Z,101903
2015-03-05T03:09:17.619Z,101894
2015-03-05T03:09:36.298Z,101905
2015-03-05T03:09:55.007Z,101903
2015-03-05T03:10:13.687Z,101914
2015-03-05T03:10:32.356Z,101905
2015-03-05T03:10:51.045Z,101908
2015-03-05T03:11:09.737Z,101903
2015-03-05T03:11:28.411Z,101902
2015-03-05T03:11:47.090Z,101914
2015-03-05T03:12:05.766Z,101908
2015-03-05T03:12:24.433Z,101905
2015-03-05T03:12:43.119Z,101908
2015-03-05T03:13:01.811Z,101905
2015-03-05T03:13:20.331Z,101902
2015-03-05T03:13:39.019Z,101908
2015-03-05T03:13:57.690Z,101911
2015-03-05T03:14:16.375Z,101917
2015-03-05T03:14:35.057Z,101902
2015-03-05T03:14:53.591Z,101894
2015-03-05T03:15:12.274Z,101897
2015-03-05T03:15:30.945Z,101908
2015-03-05T03:15:49.614Z,101908
2015-03-05T03:16:07.656Z,101908
2015-03-05T03:16:26.331Z,101900
2015-03-05T03:16:45.023Z,101908
2015-03-05T03:17:03.696Z,101911
2015-03-05T03:17:22.380Z,101911
2015-03-05T03:17:41.093Z,101897
2015-03-05T03:17:59.758Z,101911
2015-03-05T03:18:18.420Z,101900
2015-03-05T03:18:37.100Z,101902
2015-03-05T03:18:55.796Z,101908
2015-03-05T03:19:14.474Z,101902
2015-03-05T03:19:33.137Z,101902
2015-03-05T03:19:51.836Z,101914
2015-03-05T03:20:10.500Z,101900
2015-03-05T03:20:29.187Z,101908
2015-03-05T03:20:47.867Z,101902
2015-03-05T03:21:06.549Z,101908
2015-03-05T03:21:25.228Z,101905
2015-03-05T03:21:43.909Z,101911
2015-03-05T03:22:02.570Z,101908
2015-03-05T03:22:21.247Z,101900
2015-03-05T03:22:40.081Z,101902
2015-03-05T03:22:58.762Z,101905
2015-03-05T03:23:17.440Z,101902
2015-03-05T03:23:36.114Z,101900
2015-03-05T03:23:54.801Z,101897
2015-03-05T03:24:13.475Z,101900
2015-03-05T03:24:32.155Z,101911
2015-03-05T03:24:50.821Z,101908
2015-03-05T03:25:09.519Z,101902
2015-03-05T03:25:28.192Z,101905
2015-03-05T03:25:46.864Z,101900
2015-03-05T03:26:05.557Z,101905
2015-03-05T03:26:24.236Z,101914
2015-03-05T03:26:42.905Z,101911
2015-03-05T03:27:01.591Z,101917
2015-03-05T03:27:20.282Z,101902
2015-03-05T03:27:38.959Z,101908
2015-03-05T03:27:57.648Z,101908
2015-03-05T03:28:16.314Z,101902
2015-03-05T03:28:35.003Z,101920
2015-03-05T03:28:53.665Z,101902
2015-03-05T03:29:12.358Z,101914
2015-03-05T03:29:31.041Z,101902
2015-03-05T03:29:49.708Z,101902
2015-03-05T03:30:08.399Z,101908
2015-03-05T03:30:27.064Z,101899
2015-03-05T03:30:45.759Z,101914
2015-03-05T03:31:04.425Z,101917
2015-03-05T03:31:23.118Z,101914
2015-03-05T03:31:41.791Z,101899
2015-03-05T03:32:00.486Z,101908
2015-03-05T03:32:18.507Z,101914
2015-03-05T03:32:37.185Z,101914
2015-03-05T03:32:55.874Z,101911
2015-03-05T03:33:14.551Z,101914
2015-03-05T03:33:33.216Z,101911
2015-03-05T03:33:51.918Z,101911
2015-03-05T03:34:10.603Z,101908
2015-03-05T03:34:29.280Z,101911
2015-03-05T03:34:48.172Z,101917
2015-03-05T03:35:06.638Z,101914
2015-03-05T03:35:25.312Z,101917
2015-03-05T03:35:43.977Z,101908
2015-03-05T03:36:02.673Z,101902
2015-03-05T03:36:21.338Z,101911
2015-03-05T03:36:39.870Z,101923
2015-03-05T03:36:58.536Z,101931
2015-03-05T03:37:17.229Z,101914
2015-03-05T03:37:35.903Z,101914
2015-03-05T03:37:54.421Z,101917
2015-03-05T03:38:13.103Z,101908
2015-03-05T03:38:31.770Z,101923
2015-03-05T03:38:50.478Z,101917
2015-03-05T03:39:09.150Z,101917
2015-03-05T03:39:27.817Z,101920
2015-03-05T03:39:46.507Z,101917
2015-03-05T03:40:05.179Z,101911
2015-03-05T03:40:23.854Z,101911
2015-03-05T03:40:42.530Z,101914
2015-03-05T03:41:01.202Z,101923
2015-03-05T03:41:19.895Z,101920
2015-03-05T03:41:38.584Z,101917
2015-03-05T03:41:57.240Z,101920
2015-03-05T03:42:15.932Z,101917
2015-03-05T03:42:34.610Z,101920
2015-03-05T03:42:53.272Z,101926
2015-03-05T03:43:11.970Z,101926
2015-03-05T03:43:30.489Z,101929
2015-03-05T03:43:49.176Z,101929
2015-03-05T03:44:07.864Z,101929
2015-03-05T03:44:26.522Z,101926
2015-03-05T03:44:45.214Z,101937
2015-03-05T03:45:03.890Z,101920
2015-03-05T03:45:22.553Z,101935
2015-03-05T03:45:41.243Z,101923
2015-03-05T03:45:59.904Z,101923
2015-03-05T03:46:18.600Z,101923
2015-03-05T03:46:37.267Z,101926
2015-03-05T03:46:55.965Z,101929
2015-03-05T03:47:14.641Z,101923
2015-03-05T03:47:33.321Z,101932
2015-03-05T03:47:51.998Z,101926
2015-03-05T03:48:10.674Z,101926
2015-03-05T03:48:29.349Z,101920
2015-03-05T03:48:47.879Z,101926
2015-03-05T03:49:06.547Z,101929
2015-03-05T03:49:25.228Z,101926
2015-03-05T03:49:43.905Z,101923
2015-03-05T03:50:02.577Z,101917
2015-03-05T03:50:21.267Z,101932
2015-03-05T03:50:39.950Z,101935
2015-03-05T03:50:58.628Z,101932
2015-03-05T03:51:16.656Z,101932
2015-03-05T03:51:35.341Z,101926
2015-03-05T03:51:54.035Z,101926
2015-03-05T03:52:12.706Z,101923
2015-03-05T03:52:31.368Z,101917
2015-03-05T03:52:50.048Z,101923
2015-03-05T03:53:08.725Z,101920
2015-03-05T03:53:27.415Z,101920